createdAt,value
2022-10-11T00:03:16.532Z,10.65
2022-10-11T00:08:19.273Z,14.07
2022-10-11T00:13:21.990Z,11.95
2022-10-11T00:18:25.059Z,13.60
2022-10-11T00:23:27.573Z,13.63
2022-10-11T00:28:30.651Z,10.75
2022-10-11T00:33:35.253Z,11.85
2022-10-11T00:38:38.316Z,14.70
2022-10-11T00:43:43.493Z,14.10
2022-10-11T00:48:54.361Z,13.57
2022-10-11T00:53:57.015Z,10.25
2022-10-11T00:59:02.111Z,10.90
2022-10-11T01:04:05.328Z,12.63
2022-10-11T01:09:08.259Z,12.20
2022-10-11T01:14:23.104Z,9.32
2022-10-11T01:24:53.866Z,12.35
2022-10-11T01:30:25.374Z,11.20
2022-10-11T01:35:32.700Z,20.15
2022-10-11T01:40:40.183Z,20.15
2022-10-11T01:45:43.887Z,14.60
2022-10-11T01:50:56.222Z,11.35
2022-10-11T01:56:10.098Z,15.18
2022-10-11T02:01:28.825Z,14.20
2022-10-11T02:06:50.332Z,13.52
2022-10-11T02:11:54.944Z,17.10
2022-10-11T02:17:09.050Z,13.25
2022-10-11T02:22:25.089Z,16.75
2022-10-11T02:27:30.742Z,14.00
2022-10-11T02:32:53.011Z,14.43
2022-10-11T02:38:15.870Z,16.50
2022-10-11T02:43:39.564Z,12.48
2022-10-11T02:48:42.308Z,11.47
2022-10-11T02:53:44.932Z,13.35
2022-10-11T02:58:48.996Z,12.30
2022-10-11T03:03:51.751Z,12.38
2022-10-11T03:08:55.346Z,11.13
2022-10-11T03:13:57.964Z,14.52
2022-10-11T03:19:00.635Z,17.63
2022-10-11T03:24:03.693Z,14.07
2022-10-11T03:29:06.387Z,9.43
2022-10-11T03:34:08.885Z,7.97
2022-10-11T03:39:11.440Z,11.82
2022-10-11T03:44:14.048Z,12.02
2022-10-11T03:49:16.666Z,13.55
2022-10-11T03:54:21.455Z,12.98
2022-10-11T03:59:25.468Z,13.35
2022-10-11T04:04:27.980Z,10.90
2022-10-11T04:09:31.402Z,13.75
2022-10-11T04:14:33.998Z,12.23
2022-10-11T04:19:39.192Z,13.43
2022-10-11T04:24:41.727Z,12.07
2022-10-11T04:29:44.979Z,12.50
2022-10-11T04:34:47.617Z,16.33
2022-10-11T04:39:50.288Z,11.80
2022-10-11T04:44:52.813Z,12.77
2022-10-11T04:49:55.503Z,8.77
2022-10-11T04:54:58.162Z,12.77
2022-10-11T05:00:00.812Z,9.75
2022-10-11T05:05:04.286Z,13.63
2022-10-11T05:10:07.502Z,11.27
2022-10-11T05:15:12.437Z,13.95
2022-10-11T05:20:15.054Z,12.52
2022-10-11T05:25:17.889Z,14.07
2022-10-11T05:30:22.069Z,13.38
2022-10-11T05:35:25.334Z,11.13
2022-10-11T05:40:27.907Z,14.85
2022-10-11T05:45:30.699Z,11.63
2022-10-11T05:50:33.542Z,13.20
2022-10-11T05:55:39.390Z,10.10
2022-10-11T06:00:42.442Z,8.40
2022-10-11T06:05:45.019Z,12.48
2022-10-11T06:10:49.767Z,10.20
2022-10-11T06:15:52.286Z,12.40
2022-10-11T06:20:55.009Z,13.35
2022-10-11T06:25:59.884Z,11.23
2022-10-11T06:36:10.338Z,15.97
2022-10-11T06:41:22.074Z,15.00
2022-10-11T06:46:26.434Z,15.00
2022-10-11T06:51:30.205Z,17.20
2022-10-11T06:56:32.770Z,21.67
2022-10-11T07:01:35.467Z,29.15
2022-10-11T07:06:41.141Z,29.77
2022-10-11T07:12:02.294Z,18.25
2022-10-11T07:17:04.948Z,24.60
2022-10-11T07:22:07.639Z,34.25
2022-10-11T07:27:10.223Z,27.25
2022-10-11T07:32:13.126Z,28.30
2022-10-11T07:37:15.774Z,31.33
2022-10-11T07:42:18.470Z,40.90
2022-10-11T07:47:23.473Z,41.95
2022-10-11T07:57:28.640Z,51.63
2022-10-11T08:02:31.809Z,66.00
2022-10-11T08:07:34.364Z,78.40
2022-10-11T08:12:38.067Z,94.80
2022-10-11T08:17:40.745Z,78.70
2022-10-11T08:22:43.314Z,100.00
2022-10-11T08:27:45.867Z,112.22
2022-10-11T08:32:48.496Z,108.18
2022-10-11T08:37:52.188Z,123.65
2022-10-11T08:43:06.744Z,121.50
2022-10-11T08:48:17.502Z,132.57
2022-10-11T08:53:23.219Z,129.07
2022-10-11T08:58:39.966Z,104.38
2022-10-11T09:03:46.068Z,149.32
2022-10-11T09:09:12.766Z,117.50
2022-10-11T09:14:56.915Z,122.05
2022-10-11T09:25:36.837Z,123.75
2022-10-11T09:30:48.898Z,120.95
2022-10-11T09:35:52.562Z,117.55
2022-10-11T09:41:19.811Z,103.05
2022-10-11T09:46:40.991Z,82.43
2022-10-11T09:51:50.490Z,77.30
2022-10-11T09:56:54.874Z,69.53
2022-10-11T10:02:18.627Z,62.50
2022-10-11T10:07:22.001Z,53.35
2022-10-11T10:12:30.195Z,38.20
2022-10-11T10:17:34.701Z,33.30
2022-10-11T10:22:38.843Z,39.45
2022-10-11T10:27:56.413Z,49.83
2022-10-11T10:33:00.942Z,33.50
2022-10-11T10:38:27.051Z,26.45
2022-10-11T10:43:35.677Z,20.13
2022-10-11T10:49:48.403Z,22.98
2022-10-11T10:54:47.695Z,27.40
2022-10-11T11:00:04.419Z,20.40
2022-10-11T11:05:31.179Z,19.70
2022-10-11T11:10:39.495Z,15.23
2022-10-11T11:16:00.603Z,24.85
2022-10-11T11:21:30.995Z,12.75
2022-10-11T11:26:51.547Z,12.77
2022-10-11T11:32:17.942Z,12.90
2022-10-11T11:37:33.532Z,13.63
2022-10-11T11:42:57.265Z,14.95
2022-10-11T11:48:10.491Z,18.05
2022-10-11T11:53:24.794Z,15.23
2022-10-11T11:58:44.616Z,23.15
2022-10-11T12:03:51.342Z,18.23
2022-10-11T12:09:18.815Z,15.38
2022-10-11T12:14:27.444Z,14.57
2022-10-11T12:19:29.954Z,13.38
2022-10-11T12:24:53.861Z,17.63
2022-10-11T12:35:33.818Z,16.20
2022-10-11T12:40:43.362Z,15.75
2022-10-11T12:45:48.810Z,12.73
2022-10-11T12:51:12.819Z,20.65
2022-10-11T12:56:44.326Z,19.52
2022-10-11T13:01:54.903Z,14.85
2022-10-11T13:07:06.942Z,16.13
2022-10-11T13:12:19.414Z,16.98
2022-10-11T13:17:27.008Z,29.83
2022-10-11T13:22:29.585Z,19.50
2022-10-11T13:27:32.278Z,12.77
2022-10-11T13:32:36.614Z,16.75
2022-10-11T13:37:46.107Z,12.07
2022-10-11T13:42:50.733Z,18.65
2022-10-11T13:47:58.372Z,17.52
2022-10-11T13:53:08.198Z,8.93
2022-10-11T13:58:28.992Z,13.77
2022-10-11T14:03:40.958Z,15.00
2022-10-11T14:08:46.841Z,20.48
2022-10-11T14:13:52.115Z,17.63
2022-10-11T14:19:10.935Z,19.40
2022-10-11T14:24:14.588Z,12.57
2022-10-11T14:29:36.829Z,12.07
2022-10-11T14:34:39.365Z,11.00
2022-10-11T14:39:42.369Z,13.60
2022-10-11T14:44:45.053Z,13.57
2022-10-11T14:49:47.695Z,15.70
2022-10-11T14:54:50.239Z,13.57
2022-10-11T14:59:53.124Z,14.75
2022-10-11T15:04:56.056Z,11.68
2022-10-11T15:09:58.686Z,15.32
2022-10-11T15:15:01.185Z,13.38
2022-10-11T15:20:04.844Z,14.25
2022-10-11T15:25:07.600Z,13.93
2022-10-11T15:30:21.837Z,12.98
2022-10-11T15:35:25.223Z,14.82
2022-10-11T15:40:35.757Z,20.70
2022-10-11T15:45:38.430Z,8.15
2022-10-11T15:50:41.596Z,13.25
2022-10-11T15:55:52.565Z,17.63
2022-10-11T16:00:57.050Z,15.98
2022-10-11T16:06:05.204Z,12.18
2022-10-11T16:11:09.592Z,15.15
2022-10-11T16:16:12.693Z,11.18
2022-10-11T16:21:16.292Z,8.48
2022-10-11T16:26:18.805Z,14.90
2022-10-11T16:31:21.430Z,15.48
2022-10-11T16:36:40.211Z,16.05
2022-10-11T16:41:43.211Z,20.15
2022-10-11T16:46:48.365Z,23.05
2022-10-11T16:51:53.145Z,14.15
2022-10-11T16:56:56.748Z,9.52
2022-10-11T17:01:59.266Z,11.40
2022-10-11T17:07:01.837Z,12.50
2022-10-11T17:12:04.647Z,17.73
2022-10-11T17:17:08.619Z,15.48
2022-10-11T17:22:12.099Z,17.45
2022-10-11T17:27:14.898Z,17.40
2022-10-11T17:32:17.779Z,10.65
2022-10-11T17:37:20.690Z,17.55
2022-10-11T17:42:23.332Z,13.45
2022-10-11T17:47:26.288Z,14.35
2022-10-11T17:52:28.805Z,21.52
2022-10-11T17:57:31.396Z,10.35
2022-10-11T18:02:34.035Z,7.72
2022-10-11T18:07:36.562Z,12.18
2022-10-11T18:12:41.280Z,11.75
2022-10-11T18:17:44.257Z,9.35
2022-10-11T18:22:47.369Z,13.75
2022-10-11T18:27:51.337Z,10.07
2022-10-11T18:32:54.332Z,10.13
2022-10-11T18:38:00.788Z,7.82
2022-10-11T18:43:03.988Z,8.75
2022-10-11T18:48:08.776Z,15.18
2022-10-11T18:58:14.418Z,8.32
2022-10-11T19:03:17.263Z,12.65
2022-10-11T19:08:19.718Z,13.88
2022-10-11T19:13:22.267Z,28.42
2022-10-11T19:18:25.584Z,10.35
2022-10-11T19:23:32.870Z,21.70
2022-10-11T19:28:37.225Z,9.98
2022-10-11T19:33:39.904Z,9.45
2022-10-11T19:38:48.457Z,12.77
2022-10-11T19:43:51.642Z,11.68
2022-10-11T19:48:54.353Z,13.40
2022-10-11T19:54:08.477Z,10.55
2022-10-11T19:59:12.410Z,12.73
2022-10-11T20:04:33.167Z,17.77
2022-10-11T20:09:38.041Z,6.97
2022-10-11T20:14:40.666Z,10.73
2022-10-11T20:19:43.734Z,10.43
2022-10-11T20:24:46.455Z,16.83
2022-10-11T20:29:50.069Z,11.77
2022-10-11T20:39:56.211Z,12.10
2022-10-11T20:44:59.159Z,15.82
2022-10-11T20:50:01.696Z,10.98
2022-10-11T20:55:04.744Z,10.27
2022-10-11T21:00:08.195Z,12.60
2022-10-11T21:05:11.401Z,10.82
2022-10-11T21:10:13.950Z,16.17
2022-10-11T21:15:16.509Z,14.93
2022-10-11T21:20:19.139Z,11.15
2022-10-11T21:25:21.779Z,17.25
2022-10-11T21:30:24.334Z,11.10
2022-10-11T21:35:27.979Z,10.35
2022-10-11T21:40:30.489Z,12.65
2022-10-11T21:45:37.336Z,10.30
2022-10-11T21:50:39.798Z,16.25
2022-10-11T21:55:42.381Z,11.02
2022-10-11T22:00:47.074Z,8.02
2022-10-11T22:05:49.753Z,11.88
2022-10-11T22:10:54.821Z,14.85
2022-10-11T22:21:14.865Z,9.95
2022-10-11T22:26:23.024Z,13.82
2022-10-11T22:31:25.571Z,10.27
2022-10-11T22:36:32.715Z,10.18
2022-10-11T22:41:35.942Z,11.23
2022-10-11T22:46:38.849Z,12.20
2022-10-11T22:51:41.282Z,10.68
2022-10-11T22:56:43.882Z,13.48
2022-10-11T23:01:46.469Z,10.90
2022-10-11T23:06:49.055Z,11.27
2022-10-11T23:11:51.605Z,12.20
2022-10-11T23:16:55.391Z,10.40
2022-10-11T23:21:57.906Z,11.45
2022-10-11T23:27:00.625Z,14.40
2022-10-11T23:32:03.375Z,17.63
2022-10-11T23:37:06.636Z,9.48
2022-10-11T23:42:09.195Z,15.23
2022-10-11T23:47:11.831Z,18.60
2022-10-11T23:52:16.693Z,11.25
2022-10-11T23:57:19.245Z,17.20
